createdAt,value
2023-02-27T00:03:01.725Z,11.50
2023-02-27T00:08:04.728Z,7.30
2023-02-27T00:13:07.835Z,6.90
2023-02-27T00:18:10.729Z,7.40
2023-02-27T00:23:15.883Z,5.90
2023-02-27T00:28:18.787Z,6.00
2023-02-27T00:33:21.689Z,5.50
2023-02-27T00:38:24.589Z,7.50
2023-02-27T00:43:27.510Z,8.50
2023-02-27T00:48:30.502Z,12.50
2023-02-27T00:53:33.414Z,6.60
2023-02-27T00:58:36.198Z,7.50
2023-02-27T01:03:39.208Z,7.60
2023-02-27T01:13:46.351Z,6.10
2023-02-27T01:18:49.357Z,6.90
2023-02-27T01:23:52.264Z,6.90
2023-02-27T01:28:55.166Z,6.90
2023-02-27T01:33:57.965Z,6.20
2023-02-27T01:39:00.884Z,5.00
2023-02-27T01:44:12.040Z,3.60
2023-02-27T01:49:29.613Z,3.30
2023-02-27T01:54:36.854Z,4.90
2023-02-27T01:59:41.971Z,6.20
2023-02-27T02:04:46.514Z,3.70
2023-02-27T02:09:53.124Z,3.50
2023-02-27T02:14:56.006Z,5.30
2023-02-27T02:20:07.727Z,3.30
2023-02-27T02:25:30.998Z,4.50
2023-02-27T02:30:43.031Z,3.50
2023-02-27T02:36:04.864Z,2.90
2023-02-27T02:41:32.861Z,3.70
2023-02-27T02:46:47.394Z,2.60
2023-02-27T02:52:05.182Z,2.70
2023-02-27T02:57:13.922Z,2.70
2023-02-27T03:02:25.763Z,2.50
2023-02-27T03:07:35.653Z,3.30
2023-02-27T03:12:42.608Z,5.30
2023-02-27T03:18:09.950Z,4.30
2023-02-27T03:23:20.969Z,7.40
2023-02-27T03:28:31.755Z,4.30
2023-02-27T03:34:02.611Z,3.60
2023-02-27T03:39:22.412Z,3.20
2023-02-27T03:44:30.952Z,3.90
2023-02-27T03:49:33.849Z,5.00
2023-02-27T03:54:42.122Z,5.70
2023-02-27T03:59:45.737Z,4.50
2023-02-27T04:04:48.703Z,4.70
2023-02-27T04:10:10.453Z,40.60
2023-02-27T04:15:31.486Z,41.00
2023-02-27T04:20:34.283Z,26.60
2023-02-27T04:25:54.695Z,6.70
2023-02-27T04:31:09.849Z,3.90
2023-02-27T04:36:38.858Z,8.30
2023-02-27T04:41:54.683Z,11.30
2023-02-27T04:47:00.385Z,5.50
2023-02-27T04:52:10.658Z,5.60
2023-02-27T04:57:20.216Z,5.70
2023-02-27T05:02:33.395Z,5.30
2023-02-27T05:12:58.894Z,4.70
2023-02-27T05:18:05.303Z,4.70
2023-02-27T05:23:08.220Z,5.60
2023-02-27T05:28:19.004Z,5.20
2023-02-27T05:33:33.391Z,6.30
2023-02-27T05:38:45.269Z,5.60
2023-02-27T05:43:53.924Z,4.60
2023-02-27T05:49:21.293Z,5.80
2023-02-27T05:54:46.781Z,5.50
2023-02-27T06:00:03.770Z,7.80
2023-02-27T06:05:07.608Z,7.90
2023-02-27T06:10:19.582Z,7.40
2023-02-27T06:15:23.141Z,8.70
2023-02-27T06:20:25.950Z,32.20
2023-02-27T06:25:28.810Z,61.80
2023-02-27T06:30:32.208Z,60.10
2023-02-27T06:35:35.153Z,29.60
2023-02-27T06:40:38.598Z,33.70
2023-02-27T06:45:41.778Z,28.40
2023-02-27T06:50:44.915Z,25.80
2023-02-27T07:00:53.390Z,32.20
2023-02-27T07:05:59.433Z,18.60
2023-02-27T07:11:03.310Z,10.30
2023-02-27T07:16:06.528Z,10.70
2023-02-27T07:26:14.021Z,13.90
2023-02-27T07:31:18.201Z,5.90
2023-02-27T07:36:22.410Z,8.00
2023-02-27T07:41:30.650Z,11.40
2023-02-27T07:46:34.879Z,17.20
2023-02-27T07:51:38.101Z,19.90
2023-02-27T07:56:42.343Z,4.90
2023-02-27T08:01:46.910Z,3.20
2023-02-27T08:06:50.341Z,10.80
2023-02-27T08:11:54.327Z,3.90
2023-02-27T08:17:00.968Z,3.00
2023-02-27T08:22:04.325Z,10.80
2023-02-27T08:32:11.416Z,4.80
2023-02-27T08:37:14.372Z,5.50
2023-02-27T08:42:19.376Z,3.10
2023-02-27T08:47:23.392Z,3.20
2023-02-27T08:52:26.395Z,3.70
2023-02-27T08:57:29.288Z,2.80
2023-02-27T09:02:32.467Z,2.70
2023-02-27T09:12:39.268Z,3.20
2023-02-27T09:17:42.331Z,3.90
2023-02-27T09:22:50.405Z,5.20
2023-02-27T09:27:57.056Z,11.30
2023-02-27T09:33:00.213Z,2.20
2023-02-27T09:38:03.283Z,2.60
2023-02-27T09:43:16.305Z,2.90
2023-02-27T09:48:41.376Z,2.60
2023-02-27T09:53:48.585Z,3.40
2023-02-27T09:59:10.270Z,2.70
2023-02-27T10:04:35.115Z,6.00
2023-02-27T10:09:57.792Z,3.20
2023-02-27T10:15:17.910Z,2.70
2023-02-27T10:20:29.219Z,7.90
2023-02-27T10:25:39.594Z,6.50
2023-02-27T10:30:47.183Z,6.20
2023-02-27T10:36:02.165Z,7.90
2023-02-27T10:41:10.923Z,22.00
2023-02-27T10:46:18.055Z,5.00
2023-02-27T10:51:23.066Z,4.30
2023-02-27T10:56:27.898Z,3.70
2023-02-27T11:01:46.632Z,5.60
2023-02-27T11:06:53.084Z,3.40
2023-02-27T11:12:11.534Z,1.90
2023-02-27T11:17:22.901Z,4.70
2023-02-27T11:22:29.340Z,2.30
2023-02-27T11:27:33.154Z,1.90
2023-02-27T11:32:54.128Z,2.40
2023-02-27T11:38:16.637Z,2.60
2023-02-27T11:43:21.717Z,2.50
2023-02-27T11:48:48.711Z,3.00
2023-02-27T11:54:01.059Z,2.50
2023-02-27T11:59:10.390Z,2.80
2023-02-27T12:04:27.023Z,2.90
2023-02-27T12:09:30.372Z,2.90
2023-02-27T12:20:00.786Z,5.10
2023-02-27T12:25:14.470Z,3.40
2023-02-27T12:30:24.846Z,2.80
2023-02-27T12:35:33.210Z,3.00
2023-02-27T12:41:05.087Z,4.00
2023-02-27T12:46:34.596Z,3.30
2023-02-27T12:52:01.094Z,2.90
2023-02-27T12:57:07.013Z,3.50
2023-02-27T13:02:24.967Z,6.70
2023-02-27T13:07:39.225Z,8.90
2023-02-27T13:12:49.956Z,13.40
2023-02-27T13:18:01.564Z,6.90
2023-02-27T13:23:32.326Z,3.80
2023-02-27T13:28:35.492Z,6.20
2023-02-27T13:33:38.693Z,5.70
2023-02-27T13:43:55.485Z,4.20
2023-02-27T13:49:04.587Z,7.40
2023-02-27T13:54:13.342Z,4.20
2023-02-27T13:59:29.078Z,6.20
2023-02-27T14:04:37.516Z,6.60
2023-02-27T14:09:44.138Z,5.60
2023-02-27T14:14:50.372Z,3.50
2023-02-27T14:19:57.231Z,13.40
2023-02-27T14:25:22.324Z,7.80
2023-02-27T14:30:34.568Z,5.80
2023-02-27T14:35:38.591Z,9.80
2023-02-27T14:41:08.444Z,6.50
2023-02-27T14:46:26.534Z,32.00
2023-02-27T14:51:34.668Z,10.60
2023-02-27T14:56:37.671Z,11.90
2023-02-27T15:01:40.760Z,5.90
2023-02-27T15:06:46.263Z,11.40
2023-02-27T15:12:02.674Z,12.30
2023-02-27T15:17:28.633Z,8.00
2023-02-27T15:22:39.710Z,10.40
2023-02-27T15:27:43.017Z,13.40
2023-02-27T15:32:45.871Z,10.60
2023-02-27T15:37:55.067Z,11.10
2023-02-27T15:43:00.343Z,7.70
2023-02-27T15:48:04.605Z,8.50
2023-02-27T15:53:07.356Z,9.80
2023-02-27T15:58:21.444Z,32.60
2023-02-27T16:03:24.540Z,28.00
2023-02-27T16:08:30.460Z,33.30
2023-02-27T16:13:40.208Z,16.00
2023-02-27T16:18:55.075Z,21.00
2023-02-27T16:24:19.914Z,18.20
2023-02-27T16:29:28.989Z,24.70
2023-02-27T16:34:46.301Z,23.20
2023-02-27T16:39:54.577Z,17.30
2023-02-27T16:44:57.597Z,11.30
2023-02-27T16:50:00.676Z,46.20
2023-02-27T16:55:03.571Z,103.60
2023-02-27T17:00:10.064Z,66.20
2023-02-27T17:05:15.259Z,30.60
2023-02-27T17:10:25.547Z,32.10
2023-02-27T17:15:29.251Z,27.00
2023-02-27T17:20:32.162Z,39.20
2023-02-27T17:25:35.058Z,21.30
2023-02-27T17:30:39.142Z,25.60
2023-02-27T17:35:42.336Z,20.90
2023-02-27T17:40:45.201Z,23.20
2023-02-27T17:45:48.147Z,17.00
2023-02-27T17:50:51.009Z,49.70
2023-02-27T17:55:53.912Z,29.60
2023-02-27T18:01:11.745Z,20.00
2023-02-27T18:06:15.072Z,47.80
2023-02-27T18:11:20.132Z,40.30
2023-02-27T18:16:24.089Z,29.70
2023-02-27T18:21:27.104Z,34.80
2023-02-27T18:26:32.088Z,32.60
2023-02-27T18:31:43.360Z,27.20
2023-02-27T18:36:46.319Z,32.10
2023-02-27T18:41:49.224Z,29.10
2023-02-27T18:46:52.359Z,31.80
2023-02-27T18:51:55.335Z,67.60
2023-02-27T18:56:58.243Z,42.30
2023-02-27T19:02:01.462Z,40.30
2023-02-27T19:07:04.354Z,38.20
2023-02-27T19:12:07.726Z,38.90
2023-02-27T19:17:10.575Z,48.20
2023-02-27T19:22:13.476Z,36.40
2023-02-27T19:27:17.304Z,47.70
2023-02-27T19:32:20.280Z,33.90
2023-02-27T19:37:23.218Z,49.20
2023-02-27T19:42:26.426Z,42.20
2023-02-27T19:47:29.323Z,49.10
2023-02-27T19:52:32.225Z,41.30
2023-02-27T19:57:36.990Z,36.20
2023-02-27T20:02:40.991Z,50.70
2023-02-27T20:07:43.906Z,52.80
2023-02-27T20:12:46.815Z,44.30
2023-02-27T20:17:49.920Z,32.80
2023-02-27T20:27:55.623Z,30.10
2023-02-27T20:32:58.526Z,37.40
2023-02-27T20:38:01.641Z,116.30
2023-02-27T20:43:04.534Z,56.30
2023-02-27T20:48:07.443Z,51.40
2023-02-27T20:53:10.344Z,79.10
2023-02-27T20:58:13.250Z,45.50
2023-02-27T21:03:16.156Z,48.40
2023-02-27T21:08:19.060Z,47.20
2023-02-27T21:13:23.091Z,54.80
2023-02-27T21:18:25.991Z,50.00
2023-02-27T21:23:28.904Z,51.60
2023-02-27T21:28:31.797Z,64.40
2023-02-27T21:33:35.655Z,55.70
2023-02-27T21:38:39.578Z,70.80
2023-02-27T21:43:42.565Z,62.40
2023-02-27T21:48:45.455Z,56.10
2023-02-27T21:53:49.996Z,53.90
2023-02-27T21:58:53.677Z,50.00
2023-02-27T22:03:57.348Z,52.60
2023-02-27T22:09:02.947Z,64.30
2023-02-27T22:14:06.656Z,61.10
2023-02-27T22:19:12.750Z,30.70
2023-02-27T22:24:16.036Z,39.80
2023-02-27T22:29:18.922Z,38.40
2023-02-27T22:34:21.842Z,46.00
2023-02-27T22:39:24.737Z,55.70
2023-02-27T22:44:27.532Z,37.40
2023-02-27T22:49:30.434Z,25.40
2023-02-27T22:54:33.273Z,18.20
2023-02-27T22:59:36.622Z,25.20
2023-02-27T23:04:39.451Z,31.00
2023-02-27T23:09:42.457Z,19.90
2023-02-27T23:14:45.315Z,12.50
2023-02-27T23:19:48.272Z,18.90
2023-02-27T23:29:53.864Z,12.90
2023-02-27T23:34:56.973Z,12.90
2023-02-27T23:39:59.773Z,15.40
2023-02-27T23:45:02.585Z,21.20
2023-02-27T23:50:06.538Z,25.40
2023-02-27T23:55:09.950Z,31.10
